aviador You're here:

KGKJ Decoded Metar

MEADVILLE in PA, USA
Report Time2017-07-21 07:53:00
UTC Time2017-07-21 08:36:49
Flight Rules vfr VFR
WindCalm
Visibility9999 m
Phenomena:N/A
Clouds:Few 038 Hf
Expected CloudBase > 400 ft AGL from Temp-Dew spread
CeilingNone
Temp21°C (ISA +9)
Dew Point20°C (94% RH)
QNH1015 hPa
Density Alt2,677 ft
Elevation1,404 ft
Report Wrong Elevation
Raw Report
KGKJ 210753Z AUTO 00000KT 10SM FEW038 21/20 A2998 RMK AO2 SLP141
T02110200 TSNO=

Extra information for KGKJ:More info

Metar Taf Metar & Taf Last 4 Metars F.Rules Stats Wind Profile Meteogram Temp Stats Airport Information Weather charts Add Link Nearby VenuesMetar ALERT Operation Metar Decoded Social comments

AIRNAV info for KGKJ